Wednesday, December 19, 2018, 12:58 AM EST
Back to Local

KBDR, Sikorsky Memorial Airport

Location: Stratford, CT, United States Lat: 41.167
Local Time: 12:58 AM EST ( 5:58 GMT) Lon: -73.133
Time Zone: US/Eastern Elev: 9 ft

Show me the last for .
Show Decoded

2018-12-18 23:52 METAR KBDR 190452Z AUTO 32008KT 10SM CLR M04/M11 A3012 RMK AO2 SLP198 T10391111
                 400441039 =
2018-12-18 22:52 METAR KBDR 190352Z AUTO 32006KT 10SM CLR M03/M11 A3012 RMK AO2 SLP200 T10331106
                 =
2018-12-18 21:52 METAR KBDR 190252Z 30007KT 10SM CLR M03/M11 A3012 RMK AO2 SLP200 T10281106 50001
                 =
2018-12-18 20:52 METAR KBDR 190152Z 30009KT 10SM CLR M02/M11 A3013 RMK AO2 SLP202 T10221106 =
2018-12-18 19:52 METAR KBDR 190052Z 30010KT 10SM CLR M02/M11 A3012 RMK AO2 SLP199 T10171106 =
2018-12-18 18:52 METAR KBDR 182352Z 30010KT 10SM CLR M01/M11 A3012 RMK AO2 SLP199 T10061106 10022
                 21006 51026 =
2018-12-18 17:52 METAR KBDR 182252Z 30008KT 10SM CLR M01/M11 A3010 RMK AO2 SLP193 T10061106 =
2018-12-18 16:52 METAR KBDR 182152Z 32008KT 10SM CLR 01/M12 A3008 RMK AO2 SLP185 T00061122 =
2018-12-18 15:52 METAR KBDR 182052Z 29011KT 10SM CLR 01/M12 A3004 RMK AO2 SLP173 T00111122 53020
                 =
2018-12-18 14:52 METAR KBDR 181952Z 31010KT 10SM CLR 02/M12 A3001 RMK AO2 SLP163 T00221122 =
2018-12-18 13:52 METAR KBDR 181852Z 31012G20KT 10SM CLR 02/M12 A2999 RMK AO2 PK WND 34028/1819
                 SLP157 T00221122 =
2018-12-18 12:52 METAR KBDR 181752Z 33014G22KT 10SM CLR 01/M13 A2999 RMK AO2 PK WND 34030/1713
                 SLP153 T00111128 10011 21033 56004 =
2018-12-18 11:52 METAR KBDR 181652Z 33016G24KT 10SM CLR 01/M13 A2999 RMK AO2 PK WND 34034/1616
                 SLP153 T00061128 =
2018-12-18 10:52 METAR KBDR 181552Z 32021G29KT 10SM CLR M01/M13 A2999 RMK AO2 PK WND 30033/1510
                 SLP155 T10061133 =
2018-12-18 09:52 METAR KBDR 181452Z 32014G27KT 10SM CLR M01/M13 A3000 RMK AO2 PK WND 33031/1429
                 SLP157 T10111128 51023 =
2018-12-18 08:52 METAR KBDR 181352Z 33014G29KT 10SM CLR M02/M12 A2998 RMK AO2 PK WND 33029/1346
                 SLP150 T10221117 =
2018-12-18 07:52 METAR KBDR 181252Z 31020G28KT 10SM CLR M03/M12 A2995 RMK AO2 PK WND 32028/1250
                 SLP141 T10331117 =
2018-12-18 06:52 METAR KBDR 181152Z 34012G22KT 10SM CLR M03/M11 A2993 RMK AO2 SLP134 60000
                 T10281106 10039 21028 51041 =
2018-12-18 05:52 METAR KBDR 181052Z AUTO 35016G23KT 10SM CLR M02/M11 A2989 RMK AO2 SLP121
                 T10221106 =
2018-12-18 04:52 METAR KBDR 180952Z AUTO 34014KT 10SM CLR M02/M10 A2985 RMK AO2 SLP107 T10171100
                 =
2018-12-18 03:52 METAR KBDR 180852Z AUTO 36010G29KT 10SM CLR 01/M09 A2981 RMK AO2 PK WND
                 33029/0843 PRESRR SLP092 60000 T00061094 53035 =
2018-12-18 02:52 METAR KBDR 180752Z AUTO 31016G32KT 10SM CLR 02/M08 A2976 RMK AO2 PK WND
                 30039/0724 SLP076 T00171083 =
2018-12-18 01:52 METAR KBDR 180652Z AUTO 30010G28KT 10SM BKN046 BKN055 03/M05 A2973 RMK AO2 PK
                 WND 30030/0610 RAB21E30 SLP067 P0000 T00281050 =

Support USWX by starting your Amazon purchase here.